Airfield :
LOGIN :

Register | Disclaimer

   EN    FR    IT 

 










Legend :    VFR   Marginal VFR   IFR   Intensive IFR   Very Intensive IFR
Visi :
Ceiling :
>= 8 km
>= 3000ft
5 to 8 km
1000 to 3000 ft
1500m to 5 km
500 to 1000 ft
800 to 1500m
200 to 500 ft
< 800m
< 200 ft
Symbols :   Thunderstorms  Fog  Heavy snow  Heavy precipitations  Wind > 20 kt
SIGMETs :     Misc.  Thunderstorms  Icing  Turbulence  Mountain Waves  Volcanic Ashes







- Airport Elevation : 390 ft
- IATA code : NQY
- Download approach charts


EGHQ - Newquay

CURRENT METAR :
  • 171850Z 23010KT 9999 SCT029 18/14 Q1013 REDZ

EXPIRED METARs :
  • 171820Z 24010KT 9999 SCT036 18/14 Q1013
  • 171750Z 24012KT 9999 -DZ OVC038 17/14 Q1014
  • 171720Z 25013KT 9999 FEW016 OVC039 18/14 Q1014
  • 171650Z 24014KT 9999 FEW015 18/14 Q1014
  • 171620Z 24014KT 9999 FEW015 18/14 Q1014

TAF TAF EGHQ
Valid from the 17 at 18:00 until the 17 at 21:00 UTC


171657Z 1718/1721 26013KT 9999 FEW010 SCT015
BECMG 1718/1721 BKN010
TEMPO 1718/1721 8000 RA
PROB40
TEMPO 1719/1721 3000 RADZ BKN004
No reported NOTAMs for that airfield.



MET'MAP, your aeronautical weather chart ! - Copyright ORBIFLY December 2007 - Disclaimer

ORBIFLY MET'MAP TEAM :

Programming & Development : Alexandra Zaïnal
Concept & Development : Baudouin d'Aumeries
Co-Development & Prog : Marc-Olivier Méhu
Technical & hardware support : Manuel Goepfert

Contact : metmap@orbifly.com




SOURCES & CREDITS :

   NOAA